createdAt,value
2018-05-21T00:02:07.423Z,12.00
2018-05-21T00:04:36.142Z,12.00
2018-05-21T00:07:04.167Z,12.00
2018-05-21T00:09:32.114Z,12.00
2018-05-21T00:12:00.178Z,11.90
2018-05-21T00:14:28.083Z,11.90
2018-05-21T00:16:56.058Z,11.90
2018-05-21T00:19:23.968Z,11.90
2018-05-21T00:21:51.939Z,11.80
2018-05-21T00:24:19.864Z,11.80
2018-05-21T00:26:47.845Z,11.80
2018-05-21T00:29:16.543Z,11.70
2018-05-21T00:31:45.277Z,11.70
2018-05-21T00:34:13.250Z,11.70
2018-05-21T00:36:41.225Z,11.70
2018-05-21T00:39:09.170Z,11.70
2018-05-21T00:41:37.151Z,11.80
2018-05-21T00:44:05.102Z,11.70
2018-05-21T00:46:33.094Z,11.70
2018-05-21T00:49:01.012Z,11.70
2018-05-21T00:51:29.792Z,11.70
2018-05-21T00:53:58.483Z,11.60
2018-05-21T00:56:27.226Z,11.50
2018-05-21T00:58:55.147Z,11.60
2018-05-21T01:01:23.887Z,11.50
2018-05-21T01:03:51.797Z,11.40
2018-05-21T01:06:19.770Z,11.50
2018-05-21T01:08:48.458Z,11.40
2018-05-21T01:11:16.435Z,11.40
2018-05-21T01:13:45.113Z,11.30
2018-05-21T01:16:13.803Z,11.30
2018-05-21T01:18:42.548Z,11.20
2018-05-21T01:21:10.460Z,11.20
2018-05-21T01:23:39.196Z,11.30
2018-05-21T01:26:07.132Z,11.20
2018-05-21T01:28:35.877Z,11.30
2018-05-21T01:31:03.843Z,11.20
2018-05-21T01:33:31.835Z,11.30
2018-05-21T01:35:59.774Z,11.30
2018-05-21T01:38:27.748Z,11.30
2018-05-21T01:40:55.673Z,11.30
2018-05-21T01:43:24.417Z,11.20
2018-05-21T01:45:52.358Z,11.30
2018-05-21T01:48:20.337Z,11.20
2018-05-21T01:50:48.256Z,11.20
2018-05-21T01:53:16.231Z,11.20
2018-05-21T01:55:44.929Z,11.10
2018-05-21T01:58:13.696Z,11.10
2018-05-21T02:00:41.612Z,11.10
2018-05-21T02:03:09.578Z,11.10
2018-05-21T02:05:37.512Z,11.10
2018-05-21T02:08:06.308Z,11.10
2018-05-21T02:10:34.987Z,11.10
2018-05-21T02:13:03.728Z,11.00
2018-05-21T02:15:31.641Z,11.00
2018-05-21T02:18:00.428Z,11.00
2018-05-21T02:20:28.382Z,11.00
2018-05-21T02:22:56.362Z,11.00
2018-05-21T02:25:24.326Z,11.00
2018-05-21T02:27:52.270Z,11.00
2018-05-21T02:30:20.258Z,11.00
2018-05-21T02:32:48.192Z,10.90
2018-05-21T02:35:16.175Z,10.90
2018-05-21T02:37:44.112Z,10.90
2018-05-21T02:40:12.124Z,10.90
2018-05-21T02:42:40.059Z,10.90
2018-05-21T02:45:08.058Z,10.80
2018-05-21T02:48:01.184Z,10.80
2018-05-21T02:50:30.005Z,10.80
2018-05-21T02:52:57.948Z,10.80
2018-05-21T02:55:25.938Z,10.70
2018-05-21T02:57:53.867Z,10.70
2018-05-21T03:00:22.630Z,10.80
2018-05-21T03:02:50.558Z,10.80
2018-05-21T03:05:18.547Z,10.90
2018-05-21T03:07:46.469Z,10.90
2018-05-21T03:10:15.215Z,10.90
2018-05-21T03:12:43.131Z,10.80
2018-05-21T03:15:11.882Z,10.90
2018-05-21T03:17:39.816Z,10.90
2018-05-21T03:20:07.862Z,10.90
2018-05-21T03:22:36.534Z,11.00
2018-05-21T03:25:04.544Z,10.90
2018-05-21T03:27:39.699Z,11.00
2018-05-21T03:30:08.457Z,11.00
2018-05-21T03:32:36.410Z,11.00
2018-05-21T03:35:05.207Z,11.20
2018-05-21T03:37:33.899Z,11.30
2018-05-21T03:40:02.668Z,11.20
2018-05-21T03:42:31.369Z,11.30
2018-05-21T03:45:00.113Z,11.40
2018-05-21T03:47:28.026Z,11.40
2018-05-21T03:49:56.779Z,11.40
2018-05-21T03:52:24.693Z,11.40
2018-05-21T03:54:53.422Z,11.60
2018-05-21T03:57:21.357Z,11.50
2018-05-21T04:00:01.204Z,11.70
2018-05-21T04:02:41.789Z,12.00
2018-05-21T04:05:09.829Z,12.00
2018-05-21T04:07:38.717Z,12.10
2018-05-21T04:10:07.514Z,12.00
2018-05-21T04:12:36.210Z,12.00
2018-05-21T04:15:04.246Z,12.00
2018-05-21T04:17:32.214Z,12.00
2018-05-21T04:20:00.135Z,11.90
2018-05-21T04:22:28.127Z,11.90
2018-05-21T04:24:56.058Z,12.00
2018-05-21T04:27:24.034Z,12.00
2018-05-21T04:29:51.938Z,12.00
2018-05-21T04:32:19.902Z,12.00
2018-05-21T04:34:47.831Z,12.10
2018-05-21T04:37:16.559Z,12.20
2018-05-21T04:39:44.475Z,12.10
2018-05-21T04:42:13.218Z,12.50
2018-05-21T04:44:41.121Z,12.40
2018-05-21T04:47:09.053Z,12.60
2018-05-21T04:49:36.958Z,12.70
2018-05-21T04:52:04.928Z,12.90
2018-05-21T04:54:32.848Z,13.10
2018-05-21T04:57:00.830Z,13.20
2018-05-21T04:59:28.731Z,13.40
2018-05-21T05:01:56.697Z,13.80
2018-05-21T05:04:24.602Z,14.00
2018-05-21T05:06:53.330Z,13.90
2018-05-21T05:09:22.007Z,13.40
2018-05-21T05:11:49.964Z,13.40
2018-05-21T05:14:17.865Z,13.20
2018-05-21T05:16:45.827Z,13.20
2018-05-21T05:19:13.740Z,13.10
2018-05-21T05:21:41.666Z,13.10
2018-05-21T05:24:09.684Z,13.10
2018-05-21T05:26:37.716Z,13.30
2018-05-21T05:29:06.430Z,13.80
2018-05-21T05:31:34.375Z,13.90
2018-05-21T05:34:02.354Z,15.00
2018-05-21T05:36:30.256Z,16.10
2018-05-21T05:38:58.241Z,17.10
2018-05-21T05:41:26.941Z,19.00
2018-05-21T05:43:54.920Z,19.00
2018-05-21T05:46:22.835Z,20.30
2018-05-21T05:48:50.868Z,21.50
2018-05-21T05:51:18.776Z,21.80
2018-05-21T05:53:46.753Z,22.40
2018-05-21T05:56:14.673Z,23.50
2018-05-21T05:58:42.655Z,23.20
2018-05-21T06:01:10.593Z,24.20
2018-05-21T06:03:39.397Z,25.30
2018-05-21T06:06:07.318Z,25.30
2018-05-21T06:08:38.751Z,25.10
2018-05-21T06:11:10.050Z,25.60
2018-05-21T06:13:38.247Z,25.30
2018-05-21T06:16:06.165Z,25.80
2018-05-21T06:18:34.155Z,24.80
2018-05-21T06:21:02.846Z,23.10
2018-05-21T06:23:31.576Z,23.70
2018-05-21T06:26:02.800Z,23.70
2018-05-21T06:28:30.969Z,23.90
2018-05-21T06:30:58.860Z,24.20
2018-05-21T06:33:26.746Z,25.50
2018-05-21T06:35:54.704Z,25.90
2018-05-21T06:38:22.581Z,26.40
2018-05-21T06:40:50.519Z,26.70
2018-05-21T06:43:18.404Z,26.30
2018-05-21T06:45:46.376Z,25.90
2018-05-21T06:48:14.260Z,24.80
2018-05-21T06:50:42.236Z,24.10
2018-05-21T06:53:10.138Z,23.80
2018-05-21T06:55:38.862Z,24.40
2018-05-21T06:58:06.745Z,24.40
2018-05-21T07:00:34.687Z,24.80
2018-05-21T07:03:02.590Z,25.40
2018-05-21T07:05:30.531Z,25.20
2018-05-21T07:07:58.439Z,25.90
2018-05-21T07:10:26.415Z,26.30
2018-05-21T07:12:54.329Z,26.40
2018-05-21T07:15:23.052Z,26.70
2018-05-21T07:17:50.952Z,26.60
2018-05-21T07:20:18.900Z,27.80
2018-05-21T07:22:46.796Z,28.10
2018-05-21T07:25:14.769Z,28.50
2018-05-21T07:27:43.627Z,28.50
2018-05-21T07:30:11.605Z,28.80
2018-05-21T07:32:39.505Z,28.20
2018-05-21T07:35:08.105Z,27.60
2018-05-21T07:37:36.775Z,27.40
2018-05-21T07:40:05.591Z,27.40
2018-05-21T07:42:34.258Z,26.90
2018-05-21T07:45:02.245Z,26.90
2018-05-21T07:47:30.205Z,27.00
2018-05-21T07:49:58.880Z,29.30
2018-05-21T07:52:26.909Z,29.20
2018-05-21T07:54:54.840Z,29.40
2018-05-21T07:57:23.604Z,28.20
2018-05-21T07:59:51.577Z,28.20
2018-05-21T08:02:19.813Z,28.10
2018-05-21T08:04:48.535Z,27.80
2018-05-21T08:07:30.573Z,28.10
2018-05-21T08:09:58.498Z,28.70
2018-05-21T08:12:28.803Z,29.00
2018-05-21T08:14:57.016Z,29.00
2018-05-21T08:17:25.521Z,29.70
2018-05-21T08:19:55.633Z,29.20
2018-05-21T08:22:24.356Z,29.60
2018-05-21T08:24:52.250Z,29.60
2018-05-21T08:27:20.230Z,30.40
2018-05-21T08:29:48.133Z,30.80
2018-05-21T08:32:16.962Z,29.00
2018-05-21T08:34:44.869Z,29.00
2018-05-21T08:37:12.839Z,29.80
2018-05-21T08:39:40.719Z,30.70
2018-05-21T08:42:09.448Z,31.10
2018-05-21T08:44:37.349Z,31.10
2018-05-21T08:47:05.356Z,31.50
2018-05-21T08:49:34.114Z,31.40
2018-05-21T08:52:02.109Z,31.40
2018-05-21T08:54:31.199Z,30.70
2018-05-21T08:56:59.149Z,30.70
2018-05-21T08:59:27.049Z,31.00
2018-05-21T09:01:55.767Z,30.70
2018-05-21T09:04:23.721Z,30.70
2018-05-21T09:06:54.954Z,29.90
2018-05-21T09:09:24.143Z,29.60
2018-05-21T09:11:52.126Z,29.60
2018-05-21T09:14:20.125Z,30.30
2018-05-21T09:16:48.493Z,30.50
2018-05-21T09:19:16.496Z,30.90
2018-05-21T09:21:44.609Z,31.20
2018-05-21T09:24:12.597Z,32.30
2018-05-21T09:26:41.514Z,32.00
2018-05-21T09:29:09.459Z,32.00
2018-05-21T09:31:37.360Z,31.80
2018-05-21T09:34:05.340Z,30.80
2018-05-21T09:36:33.274Z,31.20
2018-05-21T09:39:01.249Z,30.90
2018-05-21T09:41:29.134Z,31.70
2018-05-21T09:43:57.079Z,31.50
2018-05-21T09:46:25.788Z,33.50
2018-05-21T09:48:53.784Z,33.40
2018-05-21T09:51:21.687Z,31.40
2018-05-21T09:53:50.782Z,31.20
2018-05-21T09:56:19.467Z,32.30
2018-05-21T09:58:47.417Z,32.40
2018-05-21T10:01:15.315Z,32.60
2018-05-21T10:03:44.034Z,31.40
2018-05-21T10:06:11.922Z,31.40
2018-05-21T10:08:39.865Z,31.30
2018-05-21T10:11:07.760Z,31.30
2018-05-21T10:13:35.921Z,31.00
2018-05-21T10:16:03.821Z,30.30
2018-05-21T10:18:32.848Z,29.40
2018-05-21T10:21:01.882Z,29.40
2018-05-21T10:23:29.882Z,29.40
2018-05-21T10:25:57.827Z,29.70
2018-05-21T10:28:26.574Z,29.40
2018-05-21T10:30:55.257Z,29.80
2018-05-21T10:33:23.978Z,29.70
2018-05-21T10:35:51.897Z,29.70
2018-05-21T10:38:19.901Z,31.40
2018-05-21T10:40:47.797Z,31.70
2018-05-21T10:43:15.756Z,31.70
2018-05-21T10:45:43.661Z,31.80
2018-05-21T10:48:12.432Z,31.70
2018-05-21T10:50:41.077Z,31.70
2018-05-21T10:53:09.197Z,32.70
2018-05-21T10:55:37.168Z,31.50
2018-05-21T10:58:05.179Z,31.80
2018-05-21T11:00:33.195Z,31.80
2018-05-21T11:03:01.145Z,32.00
2018-05-21T11:05:29.896Z,32.30
2018-05-21T11:07:57.794Z,32.00
2018-05-21T11:10:26.513Z,30.90
2018-05-21T11:12:54.409Z,30.90
2018-05-21T11:15:22.397Z,31.50
2018-05-21T11:17:50.654Z,31.80
2018-05-21T11:20:18.635Z,32.20
2018-05-21T11:22:46.529Z,32.20
2018-05-21T11:25:15.233Z,31.30
2018-05-21T11:27:44.093Z,32.20
2018-05-21T11:30:12.096Z,32.20
2018-05-21T11:32:39.972Z,30.80
2018-05-21T11:35:07.913Z,31.40
2018-05-21T11:37:35.792Z,30.90
2018-05-21T11:40:08.036Z,30.10
2018-05-21T11:42:36.832Z,30.00
2018-05-21T11:45:05.586Z,29.90
2018-05-21T11:47:34.336Z,30.10
2018-05-21T11:50:02.277Z,30.30
2018-05-21T11:52:31.074Z,31.00
2018-05-21T11:54:59.287Z,31.40
2018-05-21T11:57:27.179Z,31.20
2018-05-21T11:59:55.471Z,31.10
2018-05-21T12:02:23.421Z,31.20
2018-05-21T12:04:51.410Z,31.60
2018-05-21T12:07:19.298Z,30.10
2018-05-21T12:09:47.257Z,30.50
2018-05-21T12:12:15.163Z,31.00
2018-05-21T12:14:44.207Z,30.50
2018-05-21T12:17:12.082Z,30.50
2018-05-21T12:19:40.048Z,31.10
2018-05-21T12:22:07.949Z,30.80
2018-05-21T12:24:35.886Z,31.10
2018-05-21T12:27:03.835Z,30.90
2018-05-21T12:29:31.787Z,30.80
2018-05-21T12:31:59.677Z,30.90
2018-05-21T12:34:31.798Z,30.90
2018-05-21T12:37:03.780Z,30.80
2018-05-21T12:39:34.307Z,31.20
2018-05-21T12:42:02.254Z,31.50
2018-05-21T12:44:30.306Z,31.50
2018-05-21T12:46:58.290Z,31.10
2018-05-21T12:49:27.166Z,30.50
2018-05-21T12:51:55.131Z,29.70
2018-05-21T12:54:23.077Z,29.40
2018-05-21T12:56:50.955Z,29.10
2018-05-21T12:59:18.902Z,29.40
2018-05-21T13:01:46.791Z,29.70
2018-05-21T13:04:14.743Z,30.10
2018-05-21T13:06:42.645Z,30.20
2018-05-21T13:09:10.587Z,30.10
2018-05-21T13:11:38.543Z,30.30
2018-05-21T13:14:06.488Z,29.70
2018-05-21T13:16:34.441Z,30.00
2018-05-21T13:19:02.381Z,30.60
2018-05-21T13:21:30.299Z,31.00
2018-05-21T13:23:59.059Z,29.80
2018-05-21T13:26:27.147Z,29.80
2018-05-21T13:28:56.765Z,29.70
2018-05-21T13:31:24.677Z,29.10
2018-05-21T13:33:52.646Z,29.10
2018-05-21T13:36:20.543Z,29.10
2018-05-21T13:38:48.525Z,28.90
2018-05-21T13:41:16.424Z,28.90
2018-05-21T13:43:45.084Z,28.10
2018-05-21T13:46:13.045Z,28.10
2018-05-21T13:48:40.937Z,28.10
2018-05-21T13:51:08.901Z,27.90
2018-05-21T13:53:36.770Z,27.80
2018-05-21T13:56:04.751Z,27.50
2018-05-21T13:58:33.521Z,27.60
2018-05-21T14:01:04.310Z,27.60
2018-05-21T14:03:32.432Z,28.00
2018-05-21T14:06:00.413Z,28.50
2018-05-21T14:08:28.290Z,28.10
2018-05-21T14:10:56.400Z,28.00
2018-05-21T14:13:24.295Z,27.80
2018-05-21T14:15:52.285Z,27.90
2018-05-21T14:18:20.183Z,27.80
2018-05-21T14:20:50.140Z,27.50
2018-05-21T14:23:18.048Z,27.40
2018-05-21T14:25:46.035Z,27.30
2018-05-21T14:28:15.621Z,27.10
2018-05-21T14:30:43.581Z,27.00
2018-05-21T14:33:11.582Z,27.20
2018-05-21T14:35:40.321Z,27.10
2018-05-21T14:38:08.205Z,27.10
2018-05-21T14:40:36.188Z,27.20
2018-05-21T14:43:04.204Z,27.30
2018-05-21T14:45:32.161Z,27.10
2018-05-21T14:48:00.831Z,26.50
2018-05-21T14:50:28.769Z,26.40
2018-05-21T14:52:56.644Z,26.50
2018-05-21T14:55:24.593Z,26.60
2018-05-21T14:57:52.562Z,26.40
2018-05-21T15:00:20.502Z,25.90
2018-05-21T15:02:48.378Z,25.60
2018-05-21T15:05:16.307Z,25.70
2018-05-21T15:07:44.201Z,25.90
2018-05-21T15:10:13.284Z,25.80
2018-05-21T15:12:42.113Z,25.90
2018-05-21T15:15:10.333Z,25.90
2018-05-21T15:17:38.749Z,25.70
2018-05-21T15:20:08.325Z,25.30
2018-05-21T15:22:36.509Z,25.30
2018-05-21T15:25:04.501Z,25.20
2018-05-21T15:27:33.390Z,25.00
2018-05-21T15:30:01.349Z,25.10
2018-05-21T15:32:29.339Z,25.20
2018-05-21T15:34:57.666Z,25.20
2018-05-21T15:37:25.573Z,25.40
2018-05-21T15:39:54.284Z,25.70
2018-05-21T15:42:22.181Z,25.70
2018-05-21T15:44:51.164Z,26.00
2018-05-21T15:47:19.056Z,26.20
2018-05-21T15:49:47.032Z,26.40
2018-05-21T15:52:14.916Z,26.50
2018-05-21T15:54:42.914Z,26.40
2018-05-21T15:57:10.810Z,26.40
2018-05-21T15:59:38.767Z,26.40
2018-05-21T16:02:06.668Z,26.50
2018-05-21T16:04:34.628Z,26.20
2018-05-21T16:07:02.517Z,26.10
2018-05-21T16:09:30.462Z,25.90
2018-05-21T16:11:58.353Z,25.80
2018-05-21T16:14:26.257Z,25.70
2018-05-21T16:16:54.961Z,25.40
2018-05-21T16:19:22.845Z,25.40
2018-05-21T16:21:50.851Z,25.50
2018-05-21T16:24:18.742Z,25.60
2018-05-21T16:26:47.469Z,25.30
2018-05-21T16:29:15.353Z,25.30
2018-05-21T16:31:43.313Z,25.40
2018-05-21T16:34:11.216Z,25.30
2018-05-21T16:36:39.167Z,25.30
2018-05-21T16:39:07.072Z,25.20
2018-05-21T16:41:35.890Z,25.10
2018-05-21T16:44:04.329Z,25.00
2018-05-21T16:46:32.275Z,25.20
2018-05-21T16:49:00.247Z,25.30
2018-05-21T16:51:28.207Z,25.30
2018-05-21T16:53:56.178Z,25.30
2018-05-21T16:56:24.261Z,25.20
2018-05-21T16:58:52.263Z,25.00
2018-05-21T17:01:20.242Z,25.00
2018-05-21T17:03:48.132Z,25.00
2018-05-21T17:06:16.854Z,25.20
2018-05-21T17:08:44.749Z,25.10
2018-05-21T17:11:12.729Z,25.10
2018-05-21T17:13:40.609Z,25.00
2018-05-21T17:16:09.314Z,24.80
2018-05-21T17:18:37.987Z,24.80
2018-05-21T17:21:05.932Z,24.80
2018-05-21T17:23:33.835Z,24.70
2018-05-21T17:26:02.584Z,24.60
2018-05-21T17:28:30.630Z,24.60
2018-05-21T17:30:58.582Z,24.60
2018-05-21T17:33:26.514Z,24.50
2018-05-21T17:35:54.469Z,24.30
2018-05-21T17:38:22.789Z,24.20
2018-05-21T17:40:51.610Z,24.00
2018-05-21T17:43:19.514Z,23.90
2018-05-21T17:45:47.487Z,23.90
2018-05-21T17:48:15.549Z,23.80
2018-05-21T17:50:43.666Z,23.80
2018-05-21T17:53:15.611Z,23.70
2018-05-21T17:55:44.325Z,23.60
2018-05-21T17:58:12.397Z,23.60
2018-05-21T18:00:43.139Z,23.40
2018-05-21T18:03:11.073Z,23.20
2018-05-21T18:05:39.900Z,23.00
2018-05-21T18:08:08.732Z,22.90
2018-05-21T18:10:37.614Z,22.70
2018-05-21T18:13:07.474Z,22.70
2018-05-21T18:15:36.464Z,22.60
2018-05-21T18:18:04.406Z,22.50
2018-05-21T18:20:32.380Z,22.30
2018-05-21T18:23:00.298Z,22.20
2018-05-21T18:25:28.249Z,22.00
2018-05-21T18:27:56.920Z,21.50
2018-05-21T18:30:24.870Z,21.50
2018-05-21T18:32:52.770Z,21.30
2018-05-21T18:35:21.474Z,20.80
2018-05-21T18:37:49.403Z,20.80
2018-05-21T18:40:18.320Z,20.60
2018-05-21T18:42:46.329Z,20.40
2018-05-21T18:45:15.968Z,20.20
2018-05-21T18:47:43.933Z,20.10
2018-05-21T18:50:11.948Z,19.90
2018-05-21T18:52:40.600Z,19.70
2018-05-21T18:55:08.498Z,19.60
2018-05-21T18:57:37.211Z,19.50
2018-05-21T19:00:05.185Z,19.40
2018-05-21T19:02:33.196Z,19.40
2018-05-21T19:05:04.557Z,19.30
2018-05-21T19:07:32.504Z,19.30
2018-05-21T19:10:00.485Z,19.20
2018-05-21T19:12:28.434Z,19.00
2018-05-21T19:14:56.323Z,19.00
2018-05-21T19:17:24.304Z,18.90
2018-05-21T19:19:52.947Z,18.90
2018-05-21T19:22:21.277Z,18.80
2018-05-21T19:24:49.362Z,18.90
2018-05-21T19:27:21.998Z,18.80
2018-05-21T19:29:50.018Z,18.80
2018-05-21T19:32:18.733Z,18.70
2018-05-21T19:34:46.636Z,18.60
2018-05-21T19:37:14.598Z,18.60
2018-05-21T19:39:42.520Z,18.60
2018-05-21T19:42:10.489Z,18.60
2018-05-21T19:44:39.198Z,18.50
2018-05-21T19:47:07.223Z,18.50
2018-05-21T19:49:36.323Z,18.50
2018-05-21T19:52:04.307Z,18.40
2018-05-21T19:54:32.979Z,18.10
2018-05-21T19:57:00.990Z,18.10
2018-05-21T19:59:32.878Z,17.90
2018-05-21T20:02:00.829Z,17.80
2018-05-21T20:04:28.719Z,17.70
2018-05-21T20:06:56.669Z,17.60
2018-05-21T20:09:24.569Z,17.50
2018-05-21T20:11:52.545Z,17.50
2018-05-21T20:14:20.568Z,17.40
2018-05-21T20:16:48.501Z,17.30
2018-05-21T20:19:16.482Z,17.30
2018-05-21T20:21:45.170Z,17.10
2018-05-21T20:24:13.890Z,17.10
2018-05-21T20:26:41.769Z,17.10
2018-05-21T20:29:09.721Z,17.00
2018-05-21T20:31:37.619Z,17.00
2018-05-21T20:34:05.595Z,16.90
2018-05-21T20:36:33.538Z,16.90
2018-05-21T20:39:03.631Z,16.90
2018-05-21T20:41:31.717Z,16.90
2018-05-21T20:44:00.390Z,16.80
2018-05-21T20:46:29.103Z,16.60
2018-05-21T20:48:57.054Z,16.60
2018-05-21T20:51:24.943Z,16.50
2018-05-21T20:53:52.907Z,16.40
2018-05-21T20:56:20.801Z,16.40
2018-05-21T20:58:49.301Z,16.40
2018-05-21T21:01:17.234Z,16.30
2018-05-21T21:03:45.202Z,16.20
2018-05-21T21:06:13.182Z,16.20
2018-05-21T21:08:41.191Z,16.10
2018-05-21T21:11:09.406Z,16.10
2018-05-21T21:13:37.301Z,16.10
2018-05-21T21:16:05.300Z,15.90
2018-05-21T21:18:33.197Z,15.90
2018-05-21T21:21:02.071Z,15.80
2018-05-21T21:23:29.987Z,15.80
2018-05-21T21:25:57.946Z,15.70
2018-05-21T21:28:29.110Z,15.60
2018-05-21T21:30:57.294Z,15.60
2018-05-21T21:33:26.036Z,15.50
2018-05-21T21:35:57.426Z,15.40
2018-05-21T21:38:25.442Z,15.30
2018-05-21T21:40:53.410Z,15.30
2018-05-21T21:43:21.334Z,15.30
2018-05-21T21:45:49.296Z,15.20
2018-05-21T21:48:17.197Z,15.10
2018-05-21T21:50:45.161Z,15.10
2018-05-21T21:53:13.083Z,15.00
2018-05-21T21:55:41.799Z,14.90
2018-05-21T21:58:09.746Z,14.90
2018-05-21T22:00:37.730Z,14.80
2018-05-21T22:03:05.682Z,14.80
2018-05-21T22:05:34.422Z,14.70
2018-05-21T22:08:02.350Z,14.60
2018-05-21T22:10:31.101Z,14.70
2018-05-21T22:12:59.129Z,14.60
2018-05-21T22:15:28.649Z,14.50
2018-05-21T22:17:56.739Z,14.50
2018-05-21T22:20:24.761Z,14.50
2018-05-21T22:22:53.559Z,14.40
2018-05-21T22:25:21.453Z,14.40
2018-05-21T22:27:49.392Z,14.40
2018-05-21T22:30:17.293Z,14.30
2018-05-21T22:32:45.245Z,14.30
2018-05-21T22:35:13.145Z,14.30
2018-05-21T22:37:41.094Z,14.20
2018-05-21T22:40:08.984Z,14.20
2018-05-21T22:42:36.932Z,14.20
2018-05-21T22:45:05.763Z,14.30
2018-05-21T22:47:33.708Z,14.20
2018-05-21T22:50:01.593Z,14.20
2018-05-21T22:52:29.548Z,14.20
2018-05-21T22:54:57.437Z,14.10
2018-05-21T22:57:25.388Z,14.10
2018-05-21T22:59:53.303Z,14.00
2018-05-21T23:02:21.259Z,14.00
2018-05-21T23:04:49.949Z,13.80
2018-05-21T23:07:18.651Z,13.80
2018-05-21T23:09:46.570Z,13.80
2018-05-21T23:12:14.529Z,13.70
2018-05-21T23:14:42.425Z,13.70
2018-05-21T23:17:10.423Z,13.60
2018-05-21T23:19:39.142Z,13.50
2018-05-21T23:22:07.037Z,13.50
2018-05-21T23:24:34.990Z,13.40
2018-05-21T23:27:02.884Z,13.40
2018-05-21T23:29:30.870Z,13.30
2018-05-21T23:31:58.773Z,13.20
2018-05-21T23:34:26.721Z,13.20
2018-05-21T23:36:55.391Z,13.10
2018-05-21T23:39:23.340Z,13.10
2018-05-21T23:41:51.272Z,13.10
2018-05-21T23:44:19.222Z,13.10
2018-05-21T23:46:47.883Z,13.00
2018-05-21T23:49:15.834Z,13.00
2018-05-21T23:51:43.717Z,13.00
2018-05-21T23:54:11.662Z,13.00
2018-05-21T23:56:39.543Z,13.00
2018-05-21T23:59:07.492Z,13.00
